Cuaca Aktual Bandara Mali

Waktu Pengamatan : 2022-10-06 06:00:00 WITA


DAY-CLEAR-CLOUDY
Cerah - berawan
Suhu Udara
25 °C
Titik Embun
23 °C

Tekanan Udara 1011 hPa
Jarak Pandang >=10 km

Angin
Tenang
METAR Terkini : METAR WATM 052200Z 00000KT 9999 FEW019 25/23 Q1011|NOSIG=